sensor_id;sensor_type;location;lat;lon;timestamp;pressure;altitude;pressure_sealevel;temperature;humidity
71239;BME280;61342;51.442;7.370;2023-02-19T00:00:33;100167.38;;;11.48;100.00
71239;BME280;61342;51.442;7.370;2023-02-19T00:01:36;100171.84;;;11.50;100.00
71239;BME280;61342;51.442;7.370;2023-02-19T00:02:37;100170.25;;;11.48;100.00
71239;BME280;61342;51.442;7.370;2023-02-19T00:03:38;100147.78;;;11.47;100.00
71239;BME280;61342;51.442;7.370;2023-02-19T00:04:38;100170.78;;;11.47;100.00
71239;BME280;61342;51.442;7.370;2023-02-19T00:05:38;100183.38;;;11.50;100.00
71239;BME280;61342;51.442;7.370;2023-02-19T00:06:40;100178.38;;;11.50;100.00
71239;BME280;61342;51.442;7.370;2023-02-19T00:07:40;100184.66;;;11.48;100.00
71239;BME280;61342;51.442;7.370;2023-02-19T00:08:42;100192.78;;;11.50;100.00
71239;BME280;61342;51.442;7.370;2023-02-19T00:09:42;100171.84;;;11.50;100.00
71239;BME280;61342;51.442;7.370;2023-02-19T00:10:43;100184.94;;;11.51;100.00
71239;BME280;61342;51.442;7.370;2023-02-19T00:11:44;100186.47;;;11.51;100.00
71239;BME280;61342;51.442;7.370;2023-02-19T00:12:45;100173.63;;;11.52;100.00
71239;BME280;61342;51.442;7.370;2023-02-19T00:13:49;100177.31;;;11.53;100.00
71239;BME280;61342;51.442;7.370;2023-02-19T00:14:49;100177.84;;;11.51;100.00
71239;BME280;61342;51.442;7.370;2023-02-19T00:15:50;100180.97;;;11.53;100.00
71239;BME280;61342;51.442;7.370;2023-02-19T00:16:50;100181.75;;;11.54;100.00
71239;BME280;61342;51.442;7.370;2023-02-19T00:17:50;100186.72;;;11.53;100.00
71239;BME280;61342;51.442;7.370;2023-02-19T00:18:52;100185.41;;;11.54;100.00
71239;BME280;61342;51.442;7.370;2023-02-19T00:19:53;100178.09;;;11.53;100.00
71239;BME280;61342;51.442;7.370;2023-02-19T00:20:55;100183.84;;;11.53;100.00
71239;BME280;61342;51.442;7.370;2023-02-19T00:21:56;100184.06;;;11.55;100.00
71239;BME280;61342;51.442;7.370;2023-02-19T00:22:56;100185.41;;;11.54;100.00
71239;BME280;61342;51.442;7.370;2023-02-19T00:23:59;100182.53;;;11.54;100.00
71239;BME280;61342;51.442;7.370;2023-02-19T00:25:00;100176.78;;;11.54;100.00
71239;BME280;61342;51.442;7.370;2023-02-19T00:26:10;100171.31;;;11.51;100.00
71239;BME280;61342;51.442;7.370;2023-02-19T00:27:11;100174.13;;;11.56;100.00
71239;BME280;61342;51.442;7.370;2023-02-19T00:28:12;100175.22;;;11.53;100.00
71239;BME280;61342;51.442;7.370;2023-02-19T00:29:18;100178.31;;;11.55;100.00
71239;BME280;61342;51.442;7.370;2023-02-19T00:30:19;100184.88;;;11.56;100.00
71239;BME280;61342;51.442;7.370;2023-02-19T00:32:21;100175.69;;;11.57;100.00
71239;BME280;61342;51.442;7.370;2023-02-19T00:33:22;100175.69;;;11.57;100.00
71239;BME280;61342;51.442;7.370;2023-02-19T00:34:22;100173.91;;;11.54;100.00
71239;BME280;61342;51.442;7.370;2023-02-19T00:35:22;100178.03;;;11.59;100.00
71239;BME280;61342;51.442;7.370;2023-02-19T00:36:24;100181.69;;;11.59;100.00
71239;BME280;61342;51.442;7.370;2023-02-19T00:37:24;100166.50;;;11.59;100.00
71239;BME280;61342;51.442;7.370;2023-02-19T00:38:24;100166.50;;;11.59;100.00
71239;BME280;61342;51.442;7.370;2023-02-19T00:39:25;100176.19;;;11.61;100.00
71239;BME280;61342;51.442;7.370;2023-02-19T00:40:25;100168.84;;;11.60;100.00
71239;BME280;61342;51.442;7.370;2023-02-19T00:41:25;100165.75;;;11.58;100.00
71239;BME280;61342;51.442;7.370;2023-02-19T00:42:26;100177.47;;;11.60;100.00
71239;BME280;61342;51.442;7.370;2023-02-19T00:43:26;100174.59;;;11.60;100.00
71239;BME280;61342;51.442;7.370;2023-02-19T00:44:27;100160.75;;;11.59;100.00
71239;BME280;61342;51.442;7.370;2023-02-19T00:45:27;100167.28;;;11.59;100.00
71239;BME280;61342;51.442;7.370;2023-02-19T00:47:28;100160.75;;;11.59;100.00
71239;BME280;61342;51.442;7.370;2023-02-19T00:48:28;100155.75;;;11.59;100.00
71239;BME280;61342;51.442;7.370;2023-02-19T00:49:28;100155.75;;;11.59;100.00
71239;BME280;61342;51.442;7.370;2023-02-19T00:50:29;100160.00;;;11.58;100.00
71239;BME280;61342;51.442;7.370;2023-02-19T00:51:32;100150.31;;;11.56;100.00
71239;BME280;61342;51.442;7.370;2023-02-19T00:52:32;100154.22;;;11.58;100.00
71239;BME280;61342;51.442;7.370;2023-02-19T00:53:33;100154.22;;;11.58;100.00
71239;BME280;61342;51.442;7.370;2023-02-19T00:54:33;100164.19;;;11.57;100.00
71239;BME280;61342;51.442;7.370;2023-02-19T00:55:33;100153.44;;;11.58;100.00
71239;BME280;61342;51.442;7.370;2023-02-19T00:56:34;100150.63;;;11.52;100.00
71239;BME280;61342;51.442;7.370;2023-02-19T00:57:34;100154.22;;;11.58;100.00
71239;BME280;61342;51.442;7.370;2023-02-19T00:58:35;100149.78;;;11.57;100.00
71239;BME280;61342;51.442;7.370;2023-02-19T00:59:35;100146.91;;;11.57;100.00
71239;BME280;61342;51.442;7.370;2023-02-19T01:00:35;100155.53;;;11.57;100.00
71239;BME280;61342;51.442;7.370;2023-02-19T01:01:36;100154.50;;;11.55;100.00
71239;BME280;61342;51.442;7.370;2023-02-19T01:02:37;100149.00;;;11.57;100.00
71239;BME280;61342;51.442;7.370;2023-02-19T01:03:38;100151.63;;;11.55;100.00
71239;BME280;61342;51.442;7.370;2023-02-19T01:04:38;100151.63;;;11.55;100.00
71239;BME280;61342;51.442;7.370;2023-02-19T01:05:39;100147.44;;;11.56;100.00
71239;BME280;61342;51.442;7.370;2023-02-19T01:06:39;100150.63;;;11.52;100.00
71239;BME280;61342;51.442;7.370;2023-02-19T01:07:40;100144.84;;;11.52;100.00
71239;BME280;61342;51.442;7.370;2023-02-19T01:08:40;100151.63;;;11.55;100.00
71239;BME280;61342;51.442;7.370;2023-02-19T01:09:41;100145.66;;;11.53;100.00
71239;BME280;61342;51.442;7.370;2023-02-19T01:10:41;100132.03;;;11.53;100.00
71239;BME280;61342;51.442;7.370;2023-02-19T01:11:42;100135.44;;;11.52;100.00
71239;BME280;61342;51.442;7.370;2023-02-19T01:12:42;100136.22;;;11.52;100.00
71239;BME280;61342;51.442;7.370;2023-02-19T01:13:43;100140.94;;;11.50;100.00
71239;BME280;61342;51.442;7.370;2023-02-19T01:14:43;100133.13;;;11.51;100.00
71239;BME280;61342;51.442;7.370;2023-02-19T01:15:44;100145.41;;;11.51;100.00
71239;BME280;61342;51.442;7.370;2023-02-19T01:16:44;100158.22;;;11.50;100.00
71239;BME280;61342;51.442;7.370;2023-02-19T01:17:44;100143.84;;;11.50;100.00
71239;BME280;61342;51.442;7.370;2023-02-19T01:18:45;100158.22;;;11.50;100.00
71239;BME280;61342;51.442;7.370;2023-02-19T01:19:46;100142.53;;;11.51;100.00
71239;BME280;61342;51.442;7.370;2023-02-19T01:20:47;100142.28;;;11.49;100.00
71239;BME280;61342;51.442;7.370;2023-02-19T01:21:47;100163.22;;;11.50;100.00
71239;BME280;61342;51.442;7.370;2023-02-19T01:22:47;100154.56;;;11.50;100.00
71239;BME280;61342;51.442;7.370;2023-02-19T01:23:49;100143.56;;;11.48;100.00
71239;BME280;61342;51.442;7.370;2023-02-19T01:24:50;100139.91;;;11.48;100.00
71239;BME280;61342;51.442;7.370;2023-02-19T01:25:50;100149.34;;;11.48;100.00
71239;BME280;61342;51.442;7.370;2023-02-19T01:26:51;100145.66;;;11.48;100.00
71239;BME280;61342;51.442;7.370;2023-02-19T01:27:51;100141.25;;;11.47;100.00
71239;BME280;61342;51.442;7.370;2023-02-19T01:28:51;100149.34;;;11.48;100.00
71239;BME280;61342;51.442;7.370;2023-02-19T01:29:52;100148.31;;;11.46;100.00
71239;BME280;61342;51.442;7.370;2023-02-19T01:30:52;100147.22;;;11.48;100.00
71239;BME280;61342;51.442;7.370;2023-02-19T01:31:53;100151.41;;;11.48;100.00
71239;BME280;61342;51.442;7.370;2023-02-19T01:32:53;100145.44;;;11.46;100.00
71239;BME280;61342;51.442;7.370;2023-02-19T01:33:58;100144.88;;;11.47;100.00
71239;BME280;61342;51.442;7.370;2023-02-19T01:34:59;100147.00;;;11.47;100.00
71239;BME280;61342;51.442;7.370;2023-02-19T01:36:02;100150.66;;;11.47;100.00
71239;BME280;61342;51.442;7.370;2023-02-19T01:37:02;100142.56;;;11.46;100.00
71239;BME280;61342;51.442;7.370;2023-02-19T01:38:03;100145.66;;;11.48;100.00
71239;BME280;61342;51.442;7.370;2023-02-19T01:39:05;100142.78;;;11.48;100.00
71239;BME280;61342;51.442;7.370;2023-02-19T01:40:06;100141.25;;;11.47;100.00
71239;BME280;61342;51.442;7.370;2023-02-19T01:41:08;100144.34;;;11.48;100.00
71239;BME280;61342;51.442;7.370;2023-02-19T01:42:15;100138.91;;;11.45;100.00
71239;BME280;61342;51.442;7.370;2023-02-19T01:43:16;100141.25;;;11.47;100.00
71239;BME280;61342;51.442;7.370;2023-02-19T01:46:17;100145.66;;;11.48;100.00
71239;BME280;61342;51.442;7.370;2023-02-19T01:47:18;100134.94;;;11.48;100.00
71239;BME280;61342;51.442;7.370;2023-02-19T01:48:36;100141.25;;;11.47;100.00
71239;BME280;61342;51.442;7.370;2023-02-19T01:49:41;100133.38;;;11.47;100.00
71239;BME280;61342;51.442;7.370;2023-02-19T01:51:02;100139.69;;;11.46;100.00
71239;BME280;61342;51.442;7.370;2023-02-19T01:52:09;100142.00;;;11.47;100.00
71239;BME280;61342;51.442;7.370;2023-02-19T01:53:14;100138.91;;;11.45;100.00
71239;BME280;61342;51.442;7.370;2023-02-19T01:54:19;100141.78;;;11.45;100.00
71239;BME280;61342;51.442;7.370;2023-02-19T01:55:21;100134.69;;;11.46;100.00
71239;BME280;61342;51.442;7.370;2023-02-19T01:56:23;100133.91;;;11.46;100.00
71239;BME280;61342;51.442;7.370;2023-02-19T01:57:27;100131.81;;;11.46;100.00
71239;BME280;61342;51.442;7.370;2023-02-19T01:58:32;100126.84;;;11.47;100.00
71239;BME280;61342;51.442;7.370;2023-02-19T01:59:34;100123.50;;;11.43;100.00
71239;BME280;61342;51.442;7.370;2023-02-19T02:00:34;100130.78;;;11.44;100.00
71239;BME280;61342;51.442;7.370;2023-02-19T02:01:37;100127.38;;;11.45;100.00
71239;BME280;61342;51.442;7.370;2023-02-19T02:02:40;100132.59;;;11.47;100.00
71239;BME280;61342;51.442;7.370;2023-02-19T02:03:43;100134.69;;;11.46;100.00
71239;BME280;61342;51.442;7.370;2023-02-19T02:04:44;100131.81;;;11.46;100.00
71239;BME280;61342;51.442;7.370;2023-02-19T02:06:53;100132.59;;;11.47;100.00
71239;BME280;61342;51.442;7.370;2023-02-19T02:07:55;100131.81;;;11.46;100.00
71239;BME280;61342;51.442;7.370;2023-02-19T02:09:15;100131.03;;;11.46;100.00
71239;BME280;61342;51.442;7.370;2023-02-19T02:10:34;100130.78;;;11.44;100.00
71239;BME280;61342;51.442;7.370;2023-02-19T02:11:35;100129.25;;;11.43;100.00
71239;BME280;61342;51.442;7.370;2023-02-19T02:12:35;100140.22;;;11.44;100.00
71239;BME280;61342;51.442;7.370;2023-02-19T02:13:37;100136.78;;;11.46;100.00
71239;BME280;61342;51.442;7.370;2023-02-19T02:14:44;100135.78;;;11.43;100.00
71239;BME280;61342;51.442;7.370;2023-02-19T02:18:53;100131.66;;;11.39;100.00
71239;BME280;61342;51.442;7.370;2023-02-19T02:22:18;100130.31;;;11.40;100.00
71239;BME280;61342;51.442;7.370;2023-02-19T02:23:39;100134.75;;;11.41;100.00
71239;BME280;61342;51.442;7.370;2023-02-19T02:25:08;100137.41;;;11.39;100.00
71239;BME280;61342;51.442;7.370;2023-02-19T02:26:44;100126.47;;;11.32;100.00
71239;BME280;61342;51.442;7.370;2023-02-19T02:27:52;100125.63;;;11.37;100.00
71239;BME280;61342;51.442;7.370;2023-02-19T02:31:45;100138.78;;;11.32;100.00
71239;BME280;61342;51.442;7.370;2023-02-19T02:33:19;100138.22;;;11.34;100.00
71239;BME280;61342;51.442;7.370;2023-02-19T02:34:25;100137.44;;;11.33;100.00
71239;BME280;61342;51.442;7.370;2023-02-19T02:35:33;100143.72;;;11.32;100.00
71239;BME280;61342;51.442;7.370;2023-02-19T02:36:39;100139.53;;;11.33;100.00
71239;BME280;61342;51.442;7.370;2023-02-19T02:37:42;100144.75;;;11.34;100.00
71239;BME280;61342;51.442;7.370;2023-02-19T02:38:45;100148.94;;;11.33;100.00
71239;BME280;61342;51.442;7.370;2023-02-19T02:39:46;100153.94;;;11.33;100.00
71239;BME280;61342;51.442;7.370;2023-02-19T02:40:47;100148.16;;;11.33;100.00
71239;BME280;61342;51.442;7.370;2023-02-19T02:41:50;100152.63;;;11.34;100.00
71239;BME280;61342;51.442;7.370;2023-02-19T02:43:14;100155.25;;;11.32;100.00
71239;BME280;61342;51.442;7.370;2023-02-19T02:44:14;100147.41;;;11.32;100.00
71239;BME280;61342;51.442;7.370;2023-02-19T02:45:34;100146.38;;;11.30;100.00
71239;BME280;61342;51.442;7.370;2023-02-19T02:46:39;100144.28;;;11.30;100.00
71239;BME280;61342;51.442;7.370;2023-02-19T02:47:49;100151.06;;;11.33;100.00
71239;BME280;61342;51.442;7.370;2023-02-19T02:48:55;100145.28;;;11.33;100.00
71239;BME280;61342;51.442;7.370;2023-02-19T02:49:56;100145.84;;;11.31;100.00
71239;BME280;61342;51.442;7.370;2023-02-19T02:52:04;100150.28;;;11.32;100.00
71239;BME280;61342;51.442;7.370;2023-02-19T02:54:46;100148.47;;;11.29;100.00
71239;BME280;61342;51.442;7.370;2023-02-19T02:56:02;100160.22;;;11.31;100.00
71239;BME280;61342;51.442;7.370;2023-02-19T02:57:05;100152.91;;;11.30;100.00
71239;BME280;61342;51.442;7.370;2023-02-19T02:58:06;100153.69;;;11.31;100.00
71239;BME280;61342;51.442;7.370;2023-02-19T02:59:09;100145.06;;;11.31;100.00
71239;BME280;61342;51.442;7.370;2023-02-19T03:00:10;100140.63;;;11.30;100.00
71239;BME280;61342;51.442;7.370;2023-02-19T03:01:17;100146.59;;;11.32;100.00
71239;BME280;61342;51.442;7.370;2023-02-19T03:02:38;100146.59;;;11.32;100.00
71239;BME280;61342;51.442;7.370;2023-02-19T03:03:42;100142.97;;;11.31;100.00
71239;BME280;61342;51.442;7.370;2023-02-19T03:05:09;100137.25;;;11.26;100.00
71239;BME280;61342;51.442;7.370;2023-02-19T03:06:33;100151.59;;;11.31;100.00
71239;BME280;61342;51.442;7.370;2023-02-19T03:07:49;100143.00;;;11.26;100.00
71239;BME280;61342;51.442;7.370;2023-02-19T03:09:18;100147.69;;;11.29;100.00
71239;BME280;61342;51.442;7.370;2023-02-19T03:10:25;100146.38;;;11.30;100.00
71239;BME280;61342;51.442;7.370;2023-02-19T03:11:28;100146.38;;;11.30;100.00
71239;BME280;61342;51.442;7.370;2023-02-19T03:12:49;100146.38;;;11.30;100.00
71239;BME280;61342;51.442;7.370;2023-02-19T03:14:13;100151.88;;;11.28;100.00
71239;BME280;61342;51.442;7.370;2023-02-19T03:15:38;100145.91;;;11.26;100.00
71239;BME280;61342;51.442;7.370;2023-02-19T03:17:09;100156.88;;;11.27;100.00
71239;BME280;61342;51.442;7.370;2023-02-19T03:18:31;100151.66;;;11.26;100.00
71239;BME280;61342;51.442;7.370;2023-02-19T03:19:56;100154.53;;;11.26;100.00
71239;BME280;61342;51.442;7.370;2023-02-19T03:20:59;100148.78;;;11.26;100.00
71239;BME280;61342;51.442;7.370;2023-02-19T03:22:08;100156.59;;;11.25;100.00
71239;BME280;61342;51.442;7.370;2023-02-19T03:23:12;100148.50;;;11.24;100.00
71239;BME280;61342;51.442;7.370;2023-02-19T03:24:17;100160.28;;;11.26;100.00
71239;BME280;61342;51.442;7.370;2023-02-19T03:25:38;100169.94;;;11.28;100.00
71239;BME280;61342;51.442;7.370;2023-02-19T03:26:58;100158.72;;;11.25;100.00
71239;BME280;61342;51.442;7.370;2023-02-19T03:28:03;100172.81;;;11.28;100.00
71239;BME280;61342;51.442;7.370;2023-02-19T03:29:05;100164.19;;;11.28;100.00
71239;BME280;61342;51.442;7.370;2023-02-19T03:30:30;100160.28;;;11.26;100.00
71239;BME280;61342;51.442;7.370;2023-02-19T03:31:32;100161.84;;;11.27;100.00
71239;BME280;61342;51.442;7.370;2023-02-19T03:32:43;100172.03;;;11.28;100.00
71239;BME280;61342;51.442;7.370;2023-02-19T03:33:47;100173.84;;;11.31;100.00
71239;BME280;61342;51.442;7.370;2023-02-19T03:35:08;100175.69;;;11.28;100.00
71239;BME280;61342;51.442;7.370;2023-02-19T03:36:12;100156.56;;;11.31;100.00
71239;BME280;61342;51.442;7.370;2023-02-19T03:37:18;100171.47;;;11.29;100.00
71239;BME280;61342;51.442;7.370;2023-02-19T03:38:27;100175.16;;;11.30;100.00
71239;BME280;61342;51.442;7.370;2023-02-19T03:39:30;100166.53;;;11.30;100.00
71239;BME280;61342;51.442;7.370;2023-02-19T03:40:41;100169.94;;;11.28;100.00
71239;BME280;61342;51.442;7.370;2023-02-19T03:44:18;100177.53;;;11.26;100.00
71239;BME280;61342;51.442;7.370;2023-02-19T03:45:43;100175.97;;;11.25;100.00
71239;BME280;61342;51.442;7.370;2023-02-19T03:47:02;100182.00;;;11.27;100.00
71239;BME280;61342;51.442;7.370;2023-02-19T03:49:43;100185.91;;;11.24;100.00
71239;BME280;61342;51.442;7.370;2023-02-19T03:54:01;100203.19;;;11.24;100.00
71239;BME280;61342;51.442;7.370;2023-02-19T03:55:08;100188.78;;;11.24;100.00
71239;BME280;61342;51.442;7.370;2023-02-19T03:56:33;100195.09;;;11.22;100.00
71239;BME280;61342;51.442;7.370;2023-02-19T03:57:57;100184.13;;;11.21;100.00
71239;BME280;61342;51.442;7.370;2023-02-19T04:00:38;100192.50;;;11.19;100.00
71239;BME280;61342;51.442;7.370;2023-02-19T04:01:51;100207.69;;;11.19;100.00
71239;BME280;61342;51.442;7.370;2023-02-19T04:04:08;100223.09;;;11.22;100.00
71239;BME280;61342;51.442;7.370;2023-02-19T04:05:21;100212.91;;;11.21;100.00
71239;BME280;61342;51.442;7.370;2023-02-19T04:06:28;100214.47;;;11.22;100.00
71239;BME280;61342;51.442;7.370;2023-02-19T04:07:32;100211.59;;;11.22;100.00
71239;BME280;61342;51.442;7.370;2023-02-19T04:08:36;100216.81;;;11.23;100.00
71239;BME280;61342;51.442;7.370;2023-02-19T04:09:45;100214.69;;;11.24;100.00
71239;BME280;61342;51.442;7.370;2023-02-19T04:10:48;100213.38;;;11.25;100.00
71239;BME280;61342;51.442;7.370;2023-02-19T04:11:50;100212.06;;;11.26;100.00
71239;BME280;61342;51.442;7.370;2023-02-19T04:13:08;100217.81;;;11.26;100.00
71239;BME280;61342;51.442;7.370;2023-02-19T04:15:49;100219.91;;;11.25;100.00
71239;BME280;61342;51.442;7.370;2023-02-19T04:16:55;100229.81;;;11.30;100.00
71239;BME280;61342;51.442;7.370;2023-02-19T04:18:01;100227.72;;;11.30;100.00
71239;BME280;61342;51.442;7.370;2023-02-19T04:19:08;100230.91;;;11.27;100.00
71239;BME280;61342;51.442;7.370;2023-02-19T04:20:10;100230.06;;;11.32;100.00
71239;BME280;61342;51.442;7.370;2023-02-19T04:21:13;100238.16;;;11.33;100.00
71239;BME280;61342;51.442;7.370;2023-02-19T04:22:15;100237.38;;;11.33;100.00
71239;BME280;61342;51.442;7.370;2023-02-19T04:23:19;100238.69;;;11.32;100.00
71239;BME280;61342;51.442;7.370;2023-02-19T04:24:36;100243.69;;;11.31;100.00
71239;BME280;61342;51.442;7.370;2023-02-19T04:25:41;100232.16;;;11.31;100.00
71239;BME280;61342;51.442;7.370;2023-02-19T04:26:43;100234.75;;;11.35;100.00
71239;BME280;61342;51.442;7.370;2023-02-19T04:27:44;100239.19;;;11.36;100.00
71239;BME280;61342;51.442;7.370;2023-02-19T04:28:45;100238.41;;;11.35;100.00
71239;BME280;61342;51.442;7.370;2023-02-19T04:29:45;100239.19;;;11.36;100.00
71239;BME280;61342;51.442;7.370;2023-02-19T04:30:46;100243.41;;;11.35;100.00
71239;BME280;61342;51.442;7.370;2023-02-19T04:31:46;100248.06;;;11.38;100.00
71239;BME280;61342;51.442;7.370;2023-02-19T04:32:46;100240.53;;;11.35;100.00
71239;BME280;61342;51.442;7.370;2023-02-19T04:33:47;100236.84;;;11.34;100.00
71239;BME280;61342;51.442;7.370;2023-02-19T04:34:47;100252.78;;;11.35;100.00
71239;BME280;61342;51.442;7.370;2023-02-19T04:35:47;100252.03;;;11.35;100.00
71239;BME280;61342;51.442;7.370;2023-02-19T04:36:48;100249.16;;;11.35;100.00
71239;BME280;61342;51.442;7.370;2023-02-19T04:37:48;100253.34;;;11.34;100.00
71239;BME280;61342;51.442;7.370;2023-02-19T04:38:48;100252.25;;;11.37;100.00
71239;BME280;61342;51.442;7.370;2023-02-19T04:39:49;100257.78;;;11.35;100.00
71239;BME280;61342;51.442;7.370;2023-02-19T04:40:50;100251.78;;;11.33;100.00
71239;BME280;61342;51.442;7.370;2023-02-19T04:41:50;100253.34;;;11.34;100.00
71239;BME280;61342;51.442;7.370;2023-02-19T04:42:51;100254.66;;;11.33;100.00
71239;BME280;61342;51.442;7.370;2023-02-19T04:43:52;100252.31;;;11.31;100.00
71239;BME280;61342;51.442;7.370;2023-02-19T04:44:52;100258.28;;;11.33;100.00
71239;BME280;61342;51.442;7.370;2023-02-19T04:45:52;100250.19;;;11.32;100.00
71239;BME280;61342;51.442;7.370;2023-02-19T04:46:53;100258.84;;;11.32;100.00
71239;BME280;61342;51.442;7.370;2023-02-19T04:47:53;100265.94;;;11.31;100.00
71239;BME280;61342;51.442;7.370;2023-02-19T04:48:54;100264.34;;;11.30;100.00
71239;BME280;61342;51.442;7.370;2023-02-19T04:49:54;100264.63;;;11.26;100.00
71239;BME280;61342;51.442;7.370;2023-02-19T04:50:55;100267.22;;;11.30;100.00
71239;BME280;61342;51.442;7.370;2023-02-19T04:51:55;100268.53;;;11.29;100.00
71239;BME280;61342;51.442;7.370;2023-02-19T04:52:56;100260.44;;;11.27;100.00
71239;BME280;61342;51.442;7.370;2023-02-19T04:53:56;100260.19;;;11.25;100.00
71239;BME280;61342;51.442;7.370;2023-02-19T04:54:56;100280.31;;;11.25;100.00
71239;BME280;61342;51.442;7.370;2023-02-19T04:56:08;100259.97;;;11.23;100.00
71239;BME280;61342;51.442;7.370;2023-02-19T04:57:09;100267.28;;;11.24;100.00
71239;BME280;61342;51.442;7.370;2023-02-19T04:58:09;100273.31;;;11.21;100.00
71239;BME280;61342;51.442;7.370;2023-02-19T04:59:09;100270.69;;;11.23;100.00
71239;BME280;61342;51.442;7.370;2023-02-19T05:00:10;100273.03;;;11.24;100.00
71239;BME280;61342;51.442;7.370;2023-02-19T05:01:11;100272.00;;;11.22;100.00
71239;BME280;61342;51.442;7.370;2023-02-19T05:02:12;100270.69;;;11.23;100.00
71239;BME280;61342;51.442;7.370;2023-02-19T05:03:12;100286.41;;;11.22;100.00
71239;BME280;61342;51.442;7.370;2023-02-19T05:04:13;100272.53;;;11.20;100.00
71239;BME280;61342;51.442;7.370;2023-02-19T05:05:13;100280.38;;;11.20;100.00
71239;BME280;61342;51.442;7.370;2023-02-19T05:06:13;100269.66;;;11.20;100.00
71239;BME280;61342;51.442;7.370;2023-02-19T05:07:14;100273.06;;;11.19;100.00
71239;BME280;61342;51.442;7.370;2023-02-19T05:08:14;100282.47;;;11.19;100.00
71239;BME280;61342;51.442;7.370;2023-02-19T05:09:15;100284.56;;;11.19;100.00
71239;BME280;61342;51.442;7.370;2023-02-19T05:10:15;100292.19;;;11.16;100.00
71239;BME280;61342;51.442;7.370;2023-02-19T05:11:15;100293.19;;;11.19;100.00
71239;BME280;61342;51.442;7.370;2023-02-19T05:12:16;100291.66;;;11.18;100.00
71239;BME280;61342;51.442;7.370;2023-02-19T05:13:16;100279.88;;;11.16;100.00
71239;BME280;61342;51.442;7.370;2023-02-19T05:14:16;100291.38;;;11.16;100.00
71239;BME280;61342;51.442;7.370;2023-02-19T05:15:17;100285.63;;;11.16;100.00
71239;BME280;61342;51.442;7.370;2023-02-19T05:16:17;100291.94;;;11.14;100.00
71239;BME280;61342;51.442;7.370;2023-02-19T05:17:17;100290.13;;;11.11;100.00
71239;BME280;61342;51.442;7.370;2023-02-19T05:18:18;100295.34;;;11.13;100.00
71239;BME280;61342;51.442;7.370;2023-02-19T05:19:18;100301.09;;;11.13;100.00
71239;BME280;61342;51.442;7.370;2023-02-19T05:20:18;100294.84;;;11.09;100.00
71239;BME280;61342;51.442;7.370;2023-02-19T05:21:19;100304.25;;;11.09;100.00
71239;BME280;61342;51.442;7.370;2023-02-19T05:22:19;100303.22;;;11.07;100.00
71239;BME280;61342;51.442;7.370;2023-02-19T05:23:20;100305.03;;;11.10;100.00
71239;BME280;61342;51.442;7.370;2023-02-19T05:24:20;100297.47;;;11.07;100.00
71239;BME280;61342;51.442;7.370;2023-02-19T05:25:21;100310.53;;;11.08;100.00
71239;BME280;61342;51.442;7.370;2023-02-19T05:26:22;100304.78;;;11.08;100.00
71239;BME280;61342;51.442;7.370;2023-02-19T05:27:22;100316.28;;;11.08;100.00
71239;BME280;61342;51.442;7.370;2023-02-19T05:28:23;100322.03;;;11.08;100.00
71239;BME280;61342;51.442;7.370;2023-02-19T05:29:29;100308.97;;;11.07;100.00
71239;BME280;61342;51.442;7.370;2023-02-19T05:30:30;100308.47;;;11.03;100.00
71239;BME280;61342;51.442;7.370;2023-02-19T05:31:30;100318.13;;;11.05;100.00
71239;BME280;61342;51.442;7.370;2023-02-19T05:32:33;100315.25;;;11.05;100.00
71239;BME280;61342;51.442;7.370;2023-02-19T05:33:34;100309.81;;;11.02;100.00
71239;BME280;61342;51.442;7.370;2023-02-19T05:34:34;100320.22;;;11.05;100.00
71239;BME280;61342;51.442;7.370;2023-02-19T05:35:49;100322.59;;;11.01;100.00
71239;BME280;61342;51.442;7.370;2023-02-19T05:36:50;100323.38;;;11.01;100.00
71239;BME280;61342;51.442;7.370;2023-02-19T05:37:50;100324.94;;;11.02;100.00
71239;BME280;61342;51.442;7.370;2023-02-19T05:38:52;100319.19;;;11.02;100.00
71239;BME280;61342;51.442;7.370;2023-02-19T05:39:53;100325.50;;;11.01;100.00
71239;BME280;61342;51.442;7.370;2023-02-19T05:40:53;100327.59;;;11.00;100.00
71239;BME280;61342;51.442;7.370;2023-02-19T05:41:53;100327.59;;;11.00;100.00
71239;BME280;61342;51.442;7.370;2023-02-19T05:42:54;100322.59;;;11.01;100.00
71239;BME280;61342;51.442;7.370;2023-02-19T05:43:55;100322.59;;;11.01;100.00
71239;BME280;61342;51.442;7.370;2023-02-19T05:44:55;100330.47;;;11.00;100.00
71239;BME280;61342;51.442;7.370;2023-02-19T05:45:57;100334.13;;;11.01;100.00
71239;BME280;61342;51.442;7.370;2023-02-19T05:46:58;100338.56;;;11.02;100.00
71239;BME280;61342;51.442;7.370;2023-02-19T05:47:58;100331.25;;;11.01;100.00
71239;BME280;61342;51.442;7.370;2023-02-19T05:48:58;100334.88;;;11.01;100.00
71239;BME280;61342;51.442;7.370;2023-02-19T05:49:59;100339.88;;;11.01;100.00
71239;BME280;61342;51.442;7.370;2023-02-19T05:51:07;100339.88;;;11.01;100.00
71239;BME280;61342;51.442;7.370;2023-02-19T05:52:07;100337.00;;;11.01;100.00
71239;BME280;61342;51.442;7.370;2023-02-19T05:53:08;100335.41;;;11.00;100.00
71239;BME280;61342;51.442;7.370;2023-02-19T05:54:08;100341.16;;;11.00;100.00
71239;BME280;61342;51.442;7.370;2023-02-19T05:55:10;100332.31;;;10.98;100.00
71239;BME280;61342;51.442;7.370;2023-02-19T05:57:30;100340.94;;;10.98;100.00
71239;BME280;61342;51.442;7.370;2023-02-19T05:58:31;100350.88;;;10.97;100.00
71239;BME280;61342;51.442;7.370;2023-02-19T05:59:31;100360.53;;;10.99;100.00
71239;BME280;61342;51.442;7.370;2023-02-19T06:00:32;100342.47;;;10.99;100.00